Latest Coastal Weather Observations for Maningrida Airport

IDD60701

Issued at 11:21 pm CST Monday 25 July 2016 (issued every 10 minutes, with the page automatically refreshed every 10 minutes)

About coastal observations | Map of coastal stations | Coastal observations for NT | Marine services | Other Formats
Station Details ID: 014405 Name: MANINGRIDA AIRPORT Lat: -12.06 Lon: 134.23 Height: 28.1 m
Data from the previous 72 hours. | See also: Recent months at Maningrida Airport
Date/Time
CST
Temp
°C
Wind Pressure Rain since
9am
mm
Weather Cloud Vis
km
Sea
Height
m
Swell
Dir  Spd
kts
Gust
kts
hPa Trend Height
m
Period
s
Dir
25/11:00pm 24.2 SSE 6 7 1012.9 - 0.0 - - 10 - - - -
25/10:30pm 25.3 SE 8 11 1012.8 - 0.0 - - 10 - - - -
25/10:00pm 25.5 SE 9 12 1012.7 - 0.0 - - 10 - - - -
25/09:30pm 25.1 SE 7 11 1012.7 - 0.0 - - 10 - - - -
25/09:00pm 24.8 ESE 6 9 1012.3 - 0.0 - - 10 - - - -
25/08:30pm 25.0 E 6 8 1011.9 - 0.0 - - 10 - - - -
25/08:00pm 25.1 ESE 5 7 1011.5 - 0.0 - - 10 - - - -
25/07:30pm 25.4 E 5 8 1011.1 - 0.0 - - 10 - - - -
25/07:00pm 25.6 E 7 9 1010.7 - 0.0 - - 10 - - - -
25/06:30pm 26.1 ENE 7 11 1010.3 - 0.0 - - 10 - - - -
25/06:00pm 27.0 ENE 8 11 1009.9 - 0.0 - - 10 - - - -
25/05:30pm 27.7 ENE 8 12 1009.8 - 0.0 - - 10 - - - -
25/05:00pm 28.4 ENE 11 15 1009.7 - 0.0 - - 10 - - - -
25/04:30pm 28.6 ENE 10 15 1009.6 - 0.0 - - 10 - - - -
25/04:00pm 29.4 ENE 9 12 1009.7 - 0.0 - - 10 - - - -
25/03:30pm 29.2 NE 9 13 1010.0 - 0.0 - - 10 - - - -
25/03:00pm 28.6 NNE 8 11 1010.3 - 0.0 - - 10 - - - -
25/02:30pm 28.1 NNE 8 11 1010.4 - 0.0 - - 10 - - - -
25/02:00pm 28.2 N 11 13 1010.6 - 0.0 - Partly cloudy 10 - - - -
25/01:30pm 29.9 ENE 10 13 1011.1 - 0.0 - Partly cloudy 10 - - - -
25/01:00pm 30.5 E 11 17 1011.5 - 0.0 - Partly cloudy 10 - - - -
25/12:30pm 31.1 ESE 14 19 1011.9 - 0.0 - - 10 - - - -
25/12:00pm 31.9 ESE 11 22 1012.2 - 0.0 - - 10 - - - -
25/11:30am 30.8 ESE 13 18 1012.7 - 0.0 - - 10 - - - -
25/11:00am 30.2 ESE 11 17 1013.0 - 0.0 - - 10 - - - -
25/10:30am 28.8 SE 11 16 1013.2 - 0.0 - - 10 - - - -
25/10:00am 27.5 SE 11 15 1013.2 - 0.0 - - 10 - - - -
25/09:30am 27.0 SE 12 17 1013.2 - 0.0 - - 10 - - - -
25/09:00am 25.8 SE 11 15 1013.1 - 0.0 - - 10 - - - -
25/08:30am 24.6 SSE 9 12 1013.0 - 0.0 - - 10 - - - -
25/08:00am 22.4 SSE 7 9 1012.9 - 0.0 - - 10 - - - -
25/07:30am 19.6 SSE 6 7 1012.8 - 0.0 - - - - - - -
25/07:00am 18.2 SSE 5 5 1012.5 - 0.0 - - 8 - - - -
25/06:30am 18.2 S 5 6 1012.3 - 0.0 - - - - - - -
25/06:03am 18.0 SSE 4 5 1011.9 - 0.0 - - 5 - - - -
25/06:00am 17.9 SSE 4 5 1012.0 - 0.0 - - 6 - - - -
25/05:30am 18.4 SSE 3 4 1011.6 - 0.0 - - 6 - - - -
25/05:00am 18.5 CALM 0 2 1011.3 - 0.0 - - 8 - - - -
25/04:30am 19.1 SSE 3 4 1011.0 - 0.0 - - 10 - - - -
25/04:00am 20.6 SSE 4 5 1011.0 - 0.0 - - 10 - - - -
25/03:30am 20.5 SSE 6 7 1011.0 - 0.0 - - 10 - - - -
25/03:00am 20.7 SSE 4 5 1011.3 - 0.0 - - 10 - - - -
25/02:30am 20.8 S 4 5 1011.7 - 0.0 - - 10 - - - -
25/02:00am 21.2 SSE 4 5 1011.7 - 0.0 - - 10 - - - -
25/01:30am 22.2 S 5 6 1011.9 - 0.0 - - 10 - - - -
25/01:00am 22.5 SSE 5 6 1012.1 - 0.0 - - 10 - - - -
25/12:30am 22.8 SE 5 6 1012.1 - 0.0 - - 10 - - - -
25/12:00am 23.0 ESE 6 7 1012.1 - 0.0 - - 10 - - - -
 
Date/Time
CST
Temp
°C
Wind Pressure Rain since
9am
mm
Weather Cloud Vis
km
Sea
Height
m
Swell
Dir  Spd
kts
Gust
kts
hPa Trend Height
m
Period
s
Dir
24/11:30pm 23.7 ESE 5 7 1012.1 - 0.0 - - 10 - - - -
24/11:00pm 23.8 ESE 6 8 1012.5 - 0.0 - - 10 - - - -
24/10:30pm 23.9 SSE 4 5 1012.7 - 0.0 - - 10 - - - -
24/10:00pm 24.3 SE 4 5 1012.8 - 0.0 - - 10 - - - -
24/09:30pm 24.7 ESE 4 5 1012.5 - 0.0 - - 10 - - - -
24/09:00pm 25.1 ESE 3 5 1012.2 - 0.0 - - 10 - - - -
24/08:30pm 25.3 E 4 7 1011.9 - 0.0 - - 10 - - - -
24/08:00pm 25.7 E 6 9 1011.5 - 0.0 - - 10 - - - -
24/07:30pm 26.0 ENE 7 10 1011.0 - 0.0 - - 10 - - - -
24/07:00pm 26.5 E 6 9 1010.6 - 0.0 - - 10 - - - -
24/06:30pm 26.9 ENE 7 9 1010.2 - 0.0 - - 10 - - - -
24/06:00pm 27.8 ENE 7 10 1010.0 - 0.0 - - 10 - - - -
24/05:30pm 28.9 ENE 8 12 1009.9 - 0.0 - - 10 - - - -
24/05:00pm 29.0 ENE 9 13 1009.8 - 0.0 - - 10 - - - -
24/04:30pm 29.6 NE 10 15 1009.7 - 0.0 - - 10 - - - -
24/04:00pm 30.3 ENE 10 14 1009.5 - 0.0 - - 10 - - - -
24/03:30pm 30.2 ENE 11 17 1009.6 - 0.0 - - 10 - - - -
24/03:00pm 30.6 ENE 10 15 1009.8 - 0.0 - - 10 - - - -
24/02:30pm 30.8 ENE 11 17 1010.3 - 0.0 - - 10 - - - -
24/02:00pm 30.5 NE 12 18 1010.7 - 0.0 - - 10 - - - -
24/01:30pm 30.3 ENE 12 17 1011.5 - 0.0 - - 10 - - - -
24/01:00pm 30.3 ENE 11 18 1012.0 - 0.0 - - 10 - - - -
24/12:30pm 30.8 ENE 12 17 1012.3 - 0.0 - - 10 - - - -
24/12:00pm 29.9 E 11 17 1012.8 - 0.0 - - 10 - - - -
24/11:30am 30.1 ENE 11 16 1013.0 - 0.0 - - 10 - - - -
24/11:00am 30.9 E 10 15 1013.0 - 0.0 - - 10 - - - -
24/10:30am 30.0 ESE 9 13 1013.1 - 0.0 - - 10 - - - -
24/10:00am 29.6 ESE 9 14 1013.1 - 0.0 - - 10 - - - -
24/09:30am 28.0 SE 9 14 1013.1 - 0.0 - - 10 - - - -
24/09:00am 27.3 SE 9 12 1013.0 - 0.0 - - 10 - - - -
24/08:30am 24.5 S 5 7 1012.8 - 0.0 - - 10 - - - -
24/08:00am 23.2 SSW 5 7 1012.5 - 0.0 - - 10 - - - -
24/07:30am 22.3 S 5 6 1012.1 - 0.0 - - 10 - - - -
24/07:00am 22.1 S 5 6 1011.8 - 0.0 - - 10 - - - -
24/06:30am 22.4 SSE 6 8 1011.5 - 0.0 - - 10 - - - -
24/06:00am 22.3 SSE 6 8 1011.2 - 0.0 - - 10 - - - -
24/05:30am 22.0 SSE 6 8 1011.1 - 0.0 - - 10 - - - -
24/05:00am 21.7 S 4 5 1011.0 - 0.0 - - 10 - - - -
24/04:30am 21.8 S 4 5 1010.9 - 0.0 - - 10 - - - -
24/04:00am 21.7 S 3 4 1010.8 - 0.0 - - 10 - - - -
24/03:30am 22.0 SSW 4 7 1010.9 - 0.0 - - 10 - - - -
24/03:00am 22.2 SSW 5 7 1010.8 - 0.0 - - 10 - - - -
24/02:30am 22.4 SSW 4 6 1010.8 - 0.0 - - 10 - - - -
24/02:00am 23.1 ESE 4 5 1010.8 - 0.0 - - 10 - - - -
24/01:30am 23.4 ESE 4 7 1011.0 - 0.0 - - 10 - - - -
24/01:00am 23.5 ESE 5 7 1011.2 - 0.0 - - 10 - - - -
24/12:30am 23.7 SE 3 4 1011.3 - 0.0 - - 10 - - - -
24/12:00am 24.0 ESE 4 5 1011.4 - 0.0 - - 10 - - - -
 
Date/Time
CST
Temp
°C
Wind Pressure Rain since
9am
mm
Weather Cloud Vis
km
Sea
Height
m
Swell
Dir  Spd
kts
Gust
kts
hPa Trend Height
m
Period
s
Dir
23/11:30pm 24.3 E 4 5 1011.4 - 0.0 - - 10 - - - -
23/11:00pm 24.6 E 4 5 1011.4 - 0.0 - - 10 - - - -
23/10:30pm 24.7 E 4 5 1011.5 - 0.0 - - 10 - - - -
23/10:00pm 24.8 E 4 6 1011.4 - 0.0 - - 10 - - - -
23/09:30pm 25.0 E 4 5 1011.1 - 0.0 - - 10 - - - -
23/09:00pm 25.2 E 3 4 1010.9 - 0.0 - - 10 - - - -
23/08:30pm 25.4 E 4 5 1010.7 - 0.0 - - 10 - - - -
23/08:00pm 25.5 ENE 5 7 1010.3 - 0.0 - - 10 - - - -
23/07:30pm 25.8 ENE 4 6 1010.0 - 0.0 - - 10 - - - -
23/07:00pm 26.1 NE 6 8 1009.6 - 0.0 - - 10 - - - -
23/06:30pm 26.6 NNE 7 9 1009.3 - 0.0 - - 10 - - - -
23/06:00pm 27.9 NNE 8 10 1008.9 - 0.0 - - 10 - - - -
23/05:30pm 29.1 NNE 6 8 1008.6 - 0.0 - - 10 - - - -
23/05:00pm 30.1 NE 7 10 1008.6 - 0.0 - - 10 - - - -
23/04:30pm 30.5 NE 7 12 1008.6 - 0.0 - - 10 - - - -
23/04:00pm 30.5 NNE 9 14 1008.6 - 0.0 - - 10 - - - -
23/03:30pm 30.5 NE 10 14 1008.7 - 0.0 - - 10 - - - -
23/03:00pm 32.4 ENE 8 12 1008.9 - 0.0 - - 10 - - - -
23/02:30pm 30.8 NE 10 15 1009.4 - 0.0 - - 10 - - - -
23/02:00pm 31.9 ENE 9 14 1009.8 - 0.0 - - 10 - - - -
23/01:30pm 31.7 ENE 9 13 1010.4 - 0.0 - - 10 - - - -
23/01:00pm 31.8 NE 10 15 1010.7 - 0.0 - - 10 - - - -
23/12:30pm 31.9 E 10 15 1010.9 - 0.0 - - 10 - - - -
23/12:00pm 31.4 ENE 9 13 1011.3 - 0.0 - - 10 - - - -
23/11:30am 30.4 ENE 10 16 1011.9 - 0.0 - - 10 - - - -
23/11:00am 30.4 E 10 16 1012.2 - 0.0 - - 10 - - - -
23/10:30am 30.2 ENE 10 17 1012.4 - 0.0 - - 10 - - - -
23/10:00am 29.9 E 9 13 1012.5 - 0.0 - - 10 - - - -
23/09:30am 28.8 ESE 7 11 1012.7 - 0.0 - - 10 - - - -
23/09:00am 27.2 ESE 8 10 1012.7 - 0.0 - - 10 - - - -
23/08:30am 25.7 SE 7 9 1012.5 - 0.0 - - 10 - - - -
23/08:00am 23.4 SSE 4 6 1012.1 - 0.0 - - 10 - - - -
23/07:30am 20.8 CALM 0 0 1012.0 - 0.0 - - 10 - - - -
23/07:00am 20.3 SSE 4 4 1011.8 - 0.0 - - 10 - - - -
23/06:30am 21.0 SSE 3 5 1011.6 - 0.0 - - 10 - - - -
23/06:00am 21.4 SSE 4 5 1011.2 - 0.0 - - 10 - - - -
23/05:30am 21.9 SSE 5 6 1011.0 - 0.0 - - 10 - - - -
23/05:00am 22.4 SE 5 6 1010.8 - 0.0 - - 10 - - - -
23/04:30am 22.8 SE 6 8 1010.6 - 0.0 - - 10 - - - -
23/04:00am 22.7 ESE 7 8 1010.3 - 0.0 - - 10 - - - -
23/03:30am 22.8 ESE 6 9 1010.4 - 0.0 - - 10 - - - -
23/03:00am 23.3 SE 7 9 1010.7 - 0.0 - - 10 - - - -
23/02:30am 23.5 SE 7 9 1010.8 - 0.0 - - 10 - - - -
23/02:00am 23.3 SSE 6 7 1010.8 - 0.0 - - 10 - - - -
23/01:30am 23.5 SSE 6 7 1010.8 - 0.0 - - 10 - - - -
23/01:00am 24.1 SE 7 10 1011.0 - 0.0 - - 10 - - - -
23/12:30am 24.6 ESE 8 11 1011.1 - 0.0 - - 10 - - - -
23/12:00am 24.6 ESE 7 10 1011.3 - 0.0 - - 8 - - - -
 
Date/Time
CST
Temp
°C
Wind Pressure Rain since
9am
mm
Weather Cloud Vis
km
Sea
Height
m
Swell
Dir  Spd
kts
Gust
kts
hPa Trend Height
m
Period
s
Dir
22/11:30pm 24.2 ESE 6 9 1011.3 - 0.0 - - 10 - - - -

Other Formats:

Comma delimited format used in spreadsheet applications
http://www.bom.gov.au/fwo/IDD60701/IDD60701.95142.axf

JavaScript Object Notation format (JSON) in row-major order
http://www.bom.gov.au/fwo/IDD60701/IDD60701.95142.json